sensor_id;sensor_type;location;lat;lon;timestamp;P1;durP1;ratioP1;P2;durP2;ratioP2
53899;SDS011;40509;32.858;-116.858;2023-04-28T00:02:01;5.15;;;3.28;;
53899;SDS011;40509;32.858;-116.858;2023-04-28T00:04:28;5.55;;;3.10;;
53899;SDS011;40509;32.858;-116.858;2023-04-28T00:06:56;4.43;;;2.72;;
53899;SDS011;40509;32.858;-116.858;2023-04-28T00:09:23;3.45;;;3.08;;
53899;SDS011;40509;32.858;-116.858;2023-04-28T00:11:50;3.15;;;2.67;;
53899;SDS011;40509;32.858;-116.858;2023-04-28T00:14:17;4.80;;;2.33;;
53899;SDS011;40509;32.858;-116.858;2023-04-28T00:16:45;2.75;;;2.42;;
53899;SDS011;40509;32.858;-116.858;2023-04-28T00:19:12;4.72;;;3.53;;
53899;SDS011;40509;32.858;-116.858;2023-04-28T00:21:39;3.67;;;2.53;;
53899;SDS011;40509;32.858;-116.858;2023-04-28T00:24:06;3.13;;;2.78;;
53899;SDS011;40509;32.858;-116.858;2023-04-28T00:26:34;5.47;;;2.78;;
53899;SDS011;40509;32.858;-116.858;2023-04-28T00:29:01;7.03;;;3.03;;
53899;SDS011;40509;32.858;-116.858;2023-04-28T00:31:29;2.90;;;2.45;;
53899;SDS011;40509;32.858;-116.858;2023-04-28T00:33:56;2.72;;;2.25;;
53899;SDS011;40509;32.858;-116.858;2023-04-28T00:36:24;3.75;;;2.63;;
53899;SDS011;40509;32.858;-116.858;2023-04-28T00:38:53;3.55;;;2.95;;
53899;SDS011;40509;32.858;-116.858;2023-04-28T00:41:20;2.40;;;2.13;;
53899;SDS011;40509;32.858;-116.858;2023-04-28T00:43:47;4.25;;;2.50;;
53899;SDS011;40509;32.858;-116.858;2023-04-28T00:46:23;8.43;;;4.10;;
53899;SDS011;40509;32.858;-116.858;2023-04-28T00:48:54;4.47;;;3.65;;
53899;SDS011;40509;32.858;-116.858;2023-04-28T00:51:22;4.97;;;3.95;;
53899;SDS011;40509;32.858;-116.858;2023-04-28T00:53:49;5.03;;;3.67;;
53899;SDS011;40509;32.858;-116.858;2023-04-28T00:56:17;5.97;;;3.65;;
53899;SDS011;40509;32.858;-116.858;2023-04-28T00:58:45;9.02;;;4.13;;
53899;SDS011;40509;32.858;-116.858;2023-04-28T01:01:12;12.45;;;4.93;;
53899;SDS011;40509;32.858;-116.858;2023-04-28T01:03:39;7.22;;;3.97;;
53899;SDS011;40509;32.858;-116.858;2023-04-28T01:06:08;18.70;;;4.57;;
53899;SDS011;40509;32.858;-116.858;2023-04-28T01:08:37;7.20;;;3.15;;
53899;SDS011;40509;32.858;-116.858;2023-04-28T01:11:08;5.22;;;3.92;;
53899;SDS011;40509;32.858;-116.858;2023-04-28T01:14:04;4.93;;;3.03;;
53899;SDS011;40509;32.858;-116.858;2023-04-28T01:16:35;5.07;;;3.97;;
53899;SDS011;40509;32.858;-116.858;2023-04-28T01:19:10;11.73;;;3.60;;
53899;SDS011;40509;32.858;-116.858;2023-04-28T01:21:47;14.88;;;4.88;;
53899;SDS011;40509;32.858;-116.858;2023-04-28T01:24:20;5.45;;;4.30;;
53899;SDS011;40509;32.858;-116.858;2023-04-28T01:26:47;8.65;;;5.05;;
53899;SDS011;40509;32.858;-116.858;2023-04-28T01:29:14;5.85;;;3.47;;
53899;SDS011;40509;32.858;-116.858;2023-04-28T01:31:41;10.25;;;3.75;;
53899;SDS011;40509;32.858;-116.858;2023-04-28T01:34:09;6.05;;;4.10;;
53899;SDS011;40509;32.858;-116.858;2023-04-28T01:36:36;4.80;;;3.63;;
53899;SDS011;40509;32.858;-116.858;2023-04-28T01:39:03;4.68;;;3.53;;
53899;SDS011;40509;32.858;-116.858;2023-04-28T01:41:32;7.50;;;3.50;;
53899;SDS011;40509;32.858;-116.858;2023-04-28T01:44:04;11.38;;;3.85;;
53899;SDS011;40509;32.858;-116.858;2023-04-28T01:46:33;6.35;;;4.20;;
53899;SDS011;40509;32.858;-116.858;2023-04-28T01:49:00;5.90;;;4.00;;
53899;SDS011;40509;32.858;-116.858;2023-04-28T01:51:28;6.63;;;4.50;;
53899;SDS011;40509;32.858;-116.858;2023-04-28T01:53:57;5.68;;;3.90;;
53899;SDS011;40509;32.858;-116.858;2023-04-28T01:56:24;4.75;;;3.38;;
53899;SDS011;40509;32.858;-116.858;2023-04-28T01:58:54;7.05;;;3.95;;
53899;SDS011;40509;32.858;-116.858;2023-04-28T02:01:21;4.35;;;3.53;;
53899;SDS011;40509;32.858;-116.858;2023-04-28T02:03:49;6.65;;;3.60;;
53899;SDS011;40509;32.858;-116.858;2023-04-28T02:06:17;5.95;;;5.00;;
53899;SDS011;40509;32.858;-116.858;2023-04-28T02:08:44;9.77;;;4.00;;
53899;SDS011;40509;32.858;-116.858;2023-04-28T02:11:12;5.88;;;3.97;;
53899;SDS011;40509;32.858;-116.858;2023-04-28T02:13:40;7.20;;;3.85;;
53899;SDS011;40509;32.858;-116.858;2023-04-28T02:16:07;11.27;;;4.75;;
53899;SDS011;40509;32.858;-116.858;2023-04-28T02:18:34;6.82;;;3.97;;
53899;SDS011;40509;32.858;-116.858;2023-04-28T02:21:08;12.77;;;4.80;;
53899;SDS011;40509;32.858;-116.858;2023-04-28T02:23:37;12.43;;;4.32;;
53899;SDS011;40509;32.858;-116.858;2023-04-28T02:26:05;8.55;;;4.45;;
53899;SDS011;40509;32.858;-116.858;2023-04-28T02:28:32;7.07;;;3.72;;
53899;SDS011;40509;32.858;-116.858;2023-04-28T02:31:06;7.65;;;3.70;;
53899;SDS011;40509;32.858;-116.858;2023-04-28T02:33:35;6.35;;;3.67;;
53899;SDS011;40509;32.858;-116.858;2023-04-28T02:36:04;8.00;;;3.83;;
53899;SDS011;40509;32.858;-116.858;2023-04-28T02:38:32;4.53;;;3.58;;
53899;SDS011;40509;32.858;-116.858;2023-04-28T02:41:00;5.65;;;3.33;;
53899;SDS011;40509;32.858;-116.858;2023-04-28T02:43:30;6.32;;;3.72;;
53899;SDS011;40509;32.858;-116.858;2023-04-28T02:45:58;7.20;;;3.90;;
53899;SDS011;40509;32.858;-116.858;2023-04-28T02:48:26;14.65;;;4.07;;
53899;SDS011;40509;32.858;-116.858;2023-04-28T02:50:53;6.63;;;3.90;;
53899;SDS011;40509;32.858;-116.858;2023-04-28T02:53:21;8.15;;;3.97;;
53899;SDS011;40509;32.858;-116.858;2023-04-28T02:55:49;6.50;;;4.15;;
53899;SDS011;40509;32.858;-116.858;2023-04-28T02:58:16;9.43;;;3.33;;
53899;SDS011;40509;32.858;-116.858;2023-04-28T03:00:43;10.65;;;4.43;;
53899;SDS011;40509;32.858;-116.858;2023-04-28T03:03:11;13.35;;;4.22;;
53899;SDS011;40509;32.858;-116.858;2023-04-28T03:05:39;17.50;;;4.53;;
53899;SDS011;40509;32.858;-116.858;2023-04-28T03:08:06;9.68;;;3.90;;
53899;SDS011;40509;32.858;-116.858;2023-04-28T03:10:33;11.95;;;4.05;;
53899;SDS011;40509;32.858;-116.858;2023-04-28T03:13:02;7.18;;;4.13;;
53899;SDS011;40509;32.858;-116.858;2023-04-28T03:15:30;4.75;;;3.58;;
53899;SDS011;40509;32.858;-116.858;2023-04-28T03:17:57;7.03;;;3.92;;
53899;SDS011;40509;32.858;-116.858;2023-04-28T03:20:24;5.82;;;3.22;;
53899;SDS011;40509;32.858;-116.858;2023-04-28T03:22:51;17.33;;;4.68;;
53899;SDS011;40509;32.858;-116.858;2023-04-28T03:25:19;8.60;;;4.18;;
53899;SDS011;40509;32.858;-116.858;2023-04-28T03:27:50;11.60;;;4.50;;
53899;SDS011;40509;32.858;-116.858;2023-04-28T03:30:17;8.43;;;4.35;;
53899;SDS011;40509;32.858;-116.858;2023-04-28T03:32:45;9.43;;;3.78;;
53899;SDS011;40509;32.858;-116.858;2023-04-28T03:35:14;8.55;;;4.25;;
53899;SDS011;40509;32.858;-116.858;2023-04-28T03:37:42;11.05;;;3.67;;
53899;SDS011;40509;32.858;-116.858;2023-04-28T03:40:10;6.13;;;4.25;;
53899;SDS011;40509;32.858;-116.858;2023-04-28T03:43:10;5.00;;;3.47;;
53899;SDS011;40509;32.858;-116.858;2023-04-28T03:45:44;10.93;;;4.35;;
53899;SDS011;40509;32.858;-116.858;2023-04-28T03:48:12;6.00;;;4.38;;
53899;SDS011;40509;32.858;-116.858;2023-04-28T03:50:40;5.75;;;3.47;;
53899;SDS011;40509;32.858;-116.858;2023-04-28T03:53:08;8.15;;;4.05;;
53899;SDS011;40509;32.858;-116.858;2023-04-28T03:55:35;6.03;;;3.67;;
53899;SDS011;40509;32.858;-116.858;2023-04-28T03:58:02;7.63;;;3.78;;
53899;SDS011;40509;32.858;-116.858;2023-04-28T04:00:29;8.40;;;3.42;;
53899;SDS011;40509;32.858;-116.858;2023-04-28T04:02:57;9.55;;;4.32;;
53899;SDS011;40509;32.858;-116.858;2023-04-28T04:05:24;5.30;;;3.97;;
53899;SDS011;40509;32.858;-116.858;2023-04-28T04:07:51;5.20;;;3.30;;
53899;SDS011;40509;32.858;-116.858;2023-04-28T04:10:19;13.98;;;3.75;;
53899;SDS011;40509;32.858;-116.858;2023-04-28T04:12:47;13.20;;;4.40;;
53899;SDS011;40509;32.858;-116.858;2023-04-28T04:15:15;10.07;;;3.80;;
53899;SDS011;40509;32.858;-116.858;2023-04-28T04:17:43;6.22;;;4.10;;
53899;SDS011;40509;32.858;-116.858;2023-04-28T04:20:11;5.60;;;3.63;;
53899;SDS011;40509;32.858;-116.858;2023-04-28T04:22:38;6.03;;;3.65;;
53899;SDS011;40509;32.858;-116.858;2023-04-28T04:25:05;7.40;;;3.78;;
53899;SDS011;40509;32.858;-116.858;2023-04-28T04:27:34;9.27;;;4.25;;
53899;SDS011;40509;32.858;-116.858;2023-04-28T04:30:01;8.25;;;4.35;;
53899;SDS011;40509;32.858;-116.858;2023-04-28T04:32:29;3.55;;;3.25;;
53899;SDS011;40509;32.858;-116.858;2023-04-28T04:34:56;7.30;;;3.45;;
53899;SDS011;40509;32.858;-116.858;2023-04-28T04:37:24;9.18;;;4.25;;
53899;SDS011;40509;32.858;-116.858;2023-04-28T04:40:02;6.68;;;4.22;;
53899;SDS011;40509;32.858;-116.858;2023-04-28T04:42:36;7.18;;;3.63;;
53899;SDS011;40509;32.858;-116.858;2023-04-28T04:45:09;11.15;;;4.65;;
53899;SDS011;40509;32.858;-116.858;2023-04-28T04:47:37;5.63;;;3.67;;
53899;SDS011;40509;32.858;-116.858;2023-04-28T04:50:06;4.38;;;3.47;;
53899;SDS011;40509;32.858;-116.858;2023-04-28T04:52:33;6.45;;;3.85;;
53899;SDS011;40509;32.858;-116.858;2023-04-28T04:55:01;5.43;;;3.30;;
53899;SDS011;40509;32.858;-116.858;2023-04-28T04:57:29;5.95;;;3.47;;
53899;SDS011;40509;32.858;-116.858;2023-04-28T05:00:20;4.55;;;2.70;;
53899;SDS011;40509;32.858;-116.858;2023-04-28T05:02:47;7.07;;;3.38;;
53899;SDS011;40509;32.858;-116.858;2023-04-28T05:05:17;5.25;;;3.47;;
53899;SDS011;40509;32.858;-116.858;2023-04-28T05:07:45;5.97;;;3.63;;
53899;SDS011;40509;32.858;-116.858;2023-04-28T05:10:12;8.68;;;4.13;;
53899;SDS011;40509;32.858;-116.858;2023-04-28T05:12:40;5.80;;;3.55;;
53899;SDS011;40509;32.858;-116.858;2023-04-28T05:15:09;6.85;;;3.17;;
53899;SDS011;40509;32.858;-116.858;2023-04-28T05:17:45;6.18;;;3.58;;
53899;SDS011;40509;32.858;-116.858;2023-04-28T05:20:13;5.35;;;3.65;;
53899;SDS011;40509;32.858;-116.858;2023-04-28T05:22:41;3.60;;;2.63;;
53899;SDS011;40509;32.858;-116.858;2023-04-28T05:25:08;6.72;;;3.13;;
53899;SDS011;40509;32.858;-116.858;2023-04-28T05:27:36;5.30;;;4.05;;
53899;SDS011;40509;32.858;-116.858;2023-04-28T05:30:08;3.75;;;2.95;;
53899;SDS011;40509;32.858;-116.858;2023-04-28T05:32:36;3.42;;;3.05;;
53899;SDS011;40509;32.858;-116.858;2023-04-28T05:35:04;7.38;;;3.10;;
53899;SDS011;40509;32.858;-116.858;2023-04-28T05:37:32;3.38;;;2.92;;
53899;SDS011;40509;32.858;-116.858;2023-04-28T05:39:59;4.25;;;3.55;;
53899;SDS011;40509;32.858;-116.858;2023-04-28T05:42:27;5.38;;;3.50;;
53899;SDS011;40509;32.858;-116.858;2023-04-28T05:44:54;6.47;;;3.35;;
53899;SDS011;40509;32.858;-116.858;2023-04-28T05:47:22;5.65;;;3.25;;
53899;SDS011;40509;32.858;-116.858;2023-04-28T05:49:50;4.38;;;2.90;;
53899;SDS011;40509;32.858;-116.858;2023-04-28T05:52:17;9.15;;;3.80;;
53899;SDS011;40509;32.858;-116.858;2023-04-28T05:54:44;4.20;;;3.33;;
53899;SDS011;40509;32.858;-116.858;2023-04-28T05:57:12;3.85;;;3.42;;
53899;SDS011;40509;32.858;-116.858;2023-04-28T05:59:43;5.07;;;2.85;;
53899;SDS011;40509;32.858;-116.858;2023-04-28T06:02:13;4.10;;;2.70;;
53899;SDS011;40509;32.858;-116.858;2023-04-28T06:04:42;5.15;;;3.47;;
53899;SDS011;40509;32.858;-116.858;2023-04-28T06:07:10;4.78;;;3.10;;
53899;SDS011;40509;32.858;-116.858;2023-04-28T06:09:38;4.75;;;3.15;;
53899;SDS011;40509;32.858;-116.858;2023-04-28T06:12:05;4.28;;;3.13;;
53899;SDS011;40509;32.858;-116.858;2023-04-28T06:14:33;7.18;;;4.00;;
53899;SDS011;40509;32.858;-116.858;2023-04-28T06:17:03;5.32;;;3.78;;
53899;SDS011;40509;32.858;-116.858;2023-04-28T06:19:31;4.40;;;3.33;;
53899;SDS011;40509;32.858;-116.858;2023-04-28T06:21:58;4.50;;;3.33;;
53899;SDS011;40509;32.858;-116.858;2023-04-28T06:24:25;6.53;;;2.78;;
53899;SDS011;40509;32.858;-116.858;2023-04-28T06:26:54;3.20;;;2.80;;
53899;SDS011;40509;32.858;-116.858;2023-04-28T06:29:22;4.25;;;3.35;;
53899;SDS011;40509;32.858;-116.858;2023-04-28T06:31:51;6.78;;;3.28;;
53899;SDS011;40509;32.858;-116.858;2023-04-28T06:34:23;4.97;;;3.28;;
53899;SDS011;40509;32.858;-116.858;2023-04-28T06:36:59;5.22;;;2.67;;
53899;SDS011;40509;32.858;-116.858;2023-04-28T06:39:27;3.78;;;3.08;;
53899;SDS011;40509;32.858;-116.858;2023-04-28T06:41:54;4.30;;;2.83;;
53899;SDS011;40509;32.858;-116.858;2023-04-28T06:44:25;3.45;;;3.15;;
53899;SDS011;40509;32.858;-116.858;2023-04-28T06:46:52;6.10;;;2.83;;
53899;SDS011;40509;32.858;-116.858;2023-04-28T06:49:20;6.65;;;3.47;;
53899;SDS011;40509;32.858;-116.858;2023-04-28T06:51:47;4.20;;;3.17;;
53899;SDS011;40509;32.858;-116.858;2023-04-28T06:54:14;3.67;;;3.28;;
53899;SDS011;40509;32.858;-116.858;2023-04-28T06:56:43;2.95;;;2.55;;
53899;SDS011;40509;32.858;-116.858;2023-04-28T06:59:10;4.97;;;2.88;;
53899;SDS011;40509;32.858;-116.858;2023-04-28T07:01:37;4.32;;;2.88;;
53899;SDS011;40509;32.858;-116.858;2023-04-28T07:04:05;2.80;;;2.60;;
53899;SDS011;40509;32.858;-116.858;2023-04-28T07:06:32;3.05;;;2.67;;
53899;SDS011;40509;32.858;-116.858;2023-04-28T07:08:59;2.80;;;2.50;;
53899;SDS011;40509;32.858;-116.858;2023-04-28T07:11:26;5.07;;;2.70;;
53899;SDS011;40509;32.858;-116.858;2023-04-28T07:13:54;8.70;;;2.95;;
53899;SDS011;40509;32.858;-116.858;2023-04-28T07:16:22;5.13;;;2.95;;
53899;SDS011;40509;32.858;-116.858;2023-04-28T07:18:49;3.85;;;2.40;;
53899;SDS011;40509;32.858;-116.858;2023-04-28T07:21:16;3.47;;;3.17;;
53899;SDS011;40509;32.858;-116.858;2023-04-28T07:23:44;4.00;;;2.97;;
53899;SDS011;40509;32.858;-116.858;2023-04-28T07:26:11;4.30;;;2.78;;
53899;SDS011;40509;32.858;-116.858;2023-04-28T07:28:42;7.38;;;2.85;;
53899;SDS011;40509;32.858;-116.858;2023-04-28T07:31:10;7.60;;;2.72;;
53899;SDS011;40509;32.858;-116.858;2023-04-28T07:33:37;3.35;;;2.88;;
53899;SDS011;40509;32.858;-116.858;2023-04-28T07:36:04;6.95;;;2.92;;
53899;SDS011;40509;32.858;-116.858;2023-04-28T07:38:35;3.80;;;2.80;;
53899;SDS011;40509;32.858;-116.858;2023-04-28T07:41:02;3.22;;;2.92;;
53899;SDS011;40509;32.858;-116.858;2023-04-28T07:43:30;5.43;;;2.83;;
53899;SDS011;40509;32.858;-116.858;2023-04-28T07:45:57;3.55;;;2.67;;
53899;SDS011;40509;32.858;-116.858;2023-04-28T07:48:24;4.95;;;3.40;;
53899;SDS011;40509;32.858;-116.858;2023-04-28T07:50:52;2.88;;;2.40;;
53899;SDS011;40509;32.858;-116.858;2023-04-28T07:53:19;3.08;;;2.45;;
53899;SDS011;40509;32.858;-116.858;2023-04-28T07:55:46;2.88;;;2.45;;
53899;SDS011;40509;32.858;-116.858;2023-04-28T07:58:14;4.40;;;2.92;;
53899;SDS011;40509;32.858;-116.858;2023-04-28T08:00:41;4.68;;;3.42;;
53899;SDS011;40509;32.858;-116.858;2023-04-28T08:03:08;3.78;;;2.70;;
53899;SDS011;40509;32.858;-116.858;2023-04-28T08:05:35;3.58;;;3.08;;
53899;SDS011;40509;32.858;-116.858;2023-04-28T08:08:03;5.05;;;2.90;;
53899;SDS011;40509;32.858;-116.858;2023-04-28T08:10:31;4.00;;;2.88;;
53899;SDS011;40509;32.858;-116.858;2023-04-28T08:12:59;4.35;;;3.45;;
53899;SDS011;40509;32.858;-116.858;2023-04-28T08:15:26;3.78;;;2.40;;
53899;SDS011;40509;32.858;-116.858;2023-04-28T08:17:53;4.22;;;3.00;;
53899;SDS011;40509;32.858;-116.858;2023-04-28T08:20:21;5.43;;;2.70;;
53899;SDS011;40509;32.858;-116.858;2023-04-28T08:22:48;3.47;;;2.08;;
53899;SDS011;40509;32.858;-116.858;2023-04-28T08:25:16;3.95;;;2.80;;
53899;SDS011;40509;32.858;-116.858;2023-04-28T08:27:43;4.50;;;2.55;;
53899;SDS011;40509;32.858;-116.858;2023-04-28T08:30:11;3.25;;;2.90;;
53899;SDS011;40509;32.858;-116.858;2023-04-28T08:32:38;5.18;;;2.97;;
53899;SDS011;40509;32.858;-116.858;2023-04-28T08:35:05;3.67;;;3.08;;
53899;SDS011;40509;32.858;-116.858;2023-04-28T08:37:33;3.03;;;2.40;;
53899;SDS011;40509;32.858;-116.858;2023-04-28T08:40:01;3.45;;;2.03;;
53899;SDS011;40509;32.858;-116.858;2023-04-28T08:42:34;3.05;;;2.55;;
53899;SDS011;40509;32.858;-116.858;2023-04-28T08:45:03;3.03;;;2.65;;
53899;SDS011;40509;32.858;-116.858;2023-04-28T08:47:35;3.15;;;2.85;;
53899;SDS011;40509;32.858;-116.858;2023-04-28T08:50:05;2.78;;;2.15;;
53899;SDS011;40509;32.858;-116.858;2023-04-28T08:52:34;2.60;;;1.95;;
53899;SDS011;40509;32.858;-116.858;2023-04-28T08:55:05;4.95;;;2.60;;
53899;SDS011;40509;32.858;-116.858;2023-04-28T08:57:38;3.35;;;2.60;;
53899;SDS011;40509;32.858;-116.858;2023-04-28T09:00:09;2.55;;;2.35;;
53899;SDS011;40509;32.858;-116.858;2023-04-28T09:02:38;4.38;;;2.58;;
53899;SDS011;40509;32.858;-116.858;2023-04-28T09:05:07;4.28;;;2.45;;
53899;SDS011;40509;32.858;-116.858;2023-04-28T09:07:39;2.55;;;2.35;;
53899;SDS011;40509;32.858;-116.858;2023-04-28T09:10:22;2.58;;;2.28;;
53899;SDS011;40509;32.858;-116.858;2023-04-28T09:12:52;3.72;;;2.45;;
53899;SDS011;40509;32.858;-116.858;2023-04-28T09:15:27;2.92;;;2.67;;
53899;SDS011;40509;32.858;-116.858;2023-04-28T09:18:06;2.67;;;2.45;;
53899;SDS011;40509;32.858;-116.858;2023-04-28T09:20:34;4.60;;;2.45;;
53899;SDS011;40509;32.858;-116.858;2023-04-28T09:23:12;3.67;;;2.20;;
53899;SDS011;40509;32.858;-116.858;2023-04-28T09:26:00;2.25;;;2.05;;
53899;SDS011;40509;32.858;-116.858;2023-04-28T09:28:29;6.05;;;2.75;;
53899;SDS011;40509;32.858;-116.858;2023-04-28T09:30:58;2.88;;;2.50;;
53899;SDS011;40509;32.858;-116.858;2023-04-28T09:33:25;2.72;;;2.33;;
53899;SDS011;40509;32.858;-116.858;2023-04-28T09:35:52;4.90;;;2.47;;
53899;SDS011;40509;32.858;-116.858;2023-04-28T09:38:21;3.42;;;2.45;;
53899;SDS011;40509;32.858;-116.858;2023-04-28T09:40:56;4.18;;;2.17;;
53899;SDS011;40509;32.858;-116.858;2023-04-28T09:43:29;7.78;;;2.60;;
53899;SDS011;40509;32.858;-116.858;2023-04-28T09:45:57;2.75;;;2.50;;
53899;SDS011;40509;32.858;-116.858;2023-04-28T09:48:32;3.90;;;2.75;;
53899;SDS011;40509;32.858;-116.858;2023-04-28T09:51:01;2.10;;;1.90;;
53899;SDS011;40509;32.858;-116.858;2023-04-28T09:53:31;3.10;;;2.58;;
53899;SDS011;40509;32.858;-116.858;2023-04-28T09:56:01;2.90;;;2.60;;
53899;SDS011;40509;32.858;-116.858;2023-04-28T09:58:30;3.13;;;2.50;;
53899;SDS011;40509;32.858;-116.858;2023-04-28T10:01:00;3.42;;;2.17;;
53899;SDS011;40509;32.858;-116.858;2023-04-28T10:03:29;3.92;;;2.63;;
53899;SDS011;40509;32.858;-116.858;2023-04-28T10:05:57;2.97;;;2.67;;
53899;SDS011;40509;32.858;-116.858;2023-04-28T10:08:25;2.45;;;2.25;;
53899;SDS011;40509;32.858;-116.858;2023-04-28T10:10:53;2.63;;;2.33;;
53899;SDS011;40509;32.858;-116.858;2023-04-28T10:13:22;2.25;;;2.05;;
53899;SDS011;40509;32.858;-116.858;2023-04-28T10:15:49;3.50;;;2.60;;
53899;SDS011;40509;32.858;-116.858;2023-04-28T10:18:21;3.00;;;2.28;;
53899;SDS011;40509;32.858;-116.858;2023-04-28T10:20:54;4.63;;;2.97;;
53899;SDS011;40509;32.858;-116.858;2023-04-28T10:23:58;2.97;;;2.35;;
53899;SDS011;40509;32.858;-116.858;2023-04-28T10:26:52;4.50;;;2.20;;
53899;SDS011;40509;32.858;-116.858;2023-04-28T10:29:34;2.58;;;2.20;;
53899;SDS011;40509;32.858;-116.858;2023-04-28T10:32:22;2.35;;;2.05;;
53899;SDS011;40509;32.858;-116.858;2023-04-28T10:35:39;15.20;;;3.33;;
53899;SDS011;40509;32.858;-116.858;2023-04-28T10:38:05;2.42;;;2.22;;
53899;SDS011;40509;32.858;-116.858;2023-04-28T10:40:37;3.60;;;2.50;;
53899;SDS011;40509;32.858;-116.858;2023-04-28T10:43:13;3.20;;;2.30;;
53899;SDS011;40509;32.858;-116.858;2023-04-28T10:56:14;4.55;;;2.00;;
53899;SDS011;40509;32.858;-116.858;2023-04-28T10:58:53;2.40;;;1.88;;
53899;SDS011;40509;32.858;-116.858;2023-04-28T11:09:02;3.22;;;2.53;;
53899;SDS011;40509;32.858;-116.858;2023-04-28T11:16:58;2.40;;;2.20;;
53899;SDS011;40509;32.858;-116.858;2023-04-28T11:19:32;2.78;;;2.35;;
53899;SDS011;40509;32.858;-116.858;2023-04-28T11:22:03;2.08;;;1.92;;
53899;SDS011;40509;32.858;-116.858;2023-04-28T11:24:37;4.05;;;2.80;;
53899;SDS011;40509;32.858;-116.858;2023-04-28T11:27:04;3.42;;;2.67;;
53899;SDS011;40509;32.858;-116.858;2023-04-28T11:29:35;2.13;;;1.77;;
53899;SDS011;40509;32.858;-116.858;2023-04-28T11:32:04;4.57;;;1.88;;
53899;SDS011;40509;32.858;-116.858;2023-04-28T11:34:32;2.42;;;2.22;;
53899;SDS011;40509;32.858;-116.858;2023-04-28T11:37:00;3.05;;;2.25;;
53899;SDS011;40509;32.858;-116.858;2023-04-28T11:39:29;4.00;;;2.75;;
53899;SDS011;40509;32.858;-116.858;2023-04-28T11:41:58;3.55;;;2.33;;
53899;SDS011;40509;32.858;-116.858;2023-04-28T11:44:34;3.45;;;2.45;;
53899;SDS011;40509;32.858;-116.858;2023-04-28T11:47:02;4.22;;;1.73;;
53899;SDS011;40509;32.858;-116.858;2023-04-28T11:49:31;3.20;;;2.60;;
53899;SDS011;40509;32.858;-116.858;2023-04-28T11:52:07;3.25;;;2.45;;
53899;SDS011;40509;32.858;-116.858;2023-04-28T11:54:36;2.40;;;2.17;;
53899;SDS011;40509;32.858;-116.858;2023-04-28T11:57:03;2.90;;;1.95;;
53899;SDS011;40509;32.858;-116.858;2023-04-28T11:59:33;2.75;;;2.10;;
53899;SDS011;40509;32.858;-116.858;2023-04-28T12:02:01;2.28;;;1.98;;
53899;SDS011;40509;32.858;-116.858;2023-04-28T12:07:06;2.88;;;2.45;;
53899;SDS011;40509;32.858;-116.858;2023-04-28T12:09:36;3.83;;;1.75;;
53899;SDS011;40509;32.858;-116.858;2023-04-28T12:12:05;3.00;;;2.25;;
53899;SDS011;40509;32.858;-116.858;2023-04-28T12:14:56;5.97;;;2.20;;
53899;SDS011;40509;32.858;-116.858;2023-04-28T12:17:32;2.90;;;2.08;;
53899;SDS011;40509;32.858;-116.858;2023-04-28T12:20:05;2.78;;;2.30;;
53899;SDS011;40509;32.858;-116.858;2023-04-28T12:22:43;3.03;;;2.30;;
53899;SDS011;40509;32.858;-116.858;2023-04-28T12:25:15;2.42;;;1.98;;
53899;SDS011;40509;32.858;-116.858;2023-04-28T12:28:01;2.22;;;1.83;;
53899;SDS011;40509;32.858;-116.858;2023-04-28T12:30:34;3.58;;;2.22;;
53899;SDS011;40509;32.858;-116.858;2023-04-28T12:33:25;3.17;;;2.33;;
53899;SDS011;40509;32.858;-116.858;2023-04-28T12:35:56;3.03;;;2.60;;
53899;SDS011;40509;32.858;-116.858;2023-04-28T12:38:24;3.20;;;2.08;;
53899;SDS011;40509;32.858;-116.858;2023-04-28T12:40:52;2.25;;;2.08;;
53899;SDS011;40509;32.858;-116.858;2023-04-28T12:43:20;2.50;;;2.22;;
53899;SDS011;40509;32.858;-116.858;2023-04-28T12:45:49;3.30;;;2.45;;
53899;SDS011;40509;32.858;-116.858;2023-04-28T12:48:21;3.13;;;1.98;;
53899;SDS011;40509;32.858;-116.858;2023-04-28T12:50:50;3.35;;;1.85;;
53899;SDS011;40509;32.858;-116.858;2023-04-28T12:53:17;5.00;;;2.22;;
53899;SDS011;40509;32.858;-116.858;2023-04-28T12:55:44;2.45;;;2.10;;
53899;SDS011;40509;32.858;-116.858;2023-04-28T12:58:11;2.83;;;2.10;;
53899;SDS011;40509;32.858;-116.858;2023-04-28T13:00:39;2.80;;;2.15;;
53899;SDS011;40509;32.858;-116.858;2023-04-28T13:03:06;3.47;;;2.15;;
53899;SDS011;40509;32.858;-116.858;2023-04-28T13:05:34;2.47;;;2.00;;
53899;SDS011;40509;32.858;-116.858;2023-04-28T13:08:01;3.55;;;2.20;;
53899;SDS011;40509;32.858;-116.858;2023-04-28T13:10:29;2.15;;;1.83;;
53899;SDS011;40509;32.858;-116.858;2023-04-28T13:12:57;3.63;;;2.42;;
53899;SDS011;40509;32.858;-116.858;2023-04-28T13:15:24;2.45;;;2.10;;
53899;SDS011;40509;32.858;-116.858;2023-04-28T13:17:52;1.85;;;1.75;;
53899;SDS011;40509;32.858;-116.858;2023-04-28T13:20:19;2.63;;;2.15;;
53899;SDS011;40509;32.858;-116.858;2023-04-28T13:22:48;3.08;;;2.30;;
53899;SDS011;40509;32.858;-116.858;2023-04-28T13:25:15;3.03;;;2.72;;
53899;SDS011;40509;32.858;-116.858;2023-04-28T13:27:42;2.35;;;2.10;;
53899;SDS011;40509;32.858;-116.858;2023-04-28T13:30:10;3.22;;;2.33;;
53899;SDS011;40509;32.858;-116.858;2023-04-28T13:32:37;3.25;;;2.28;;
53899;SDS011;40509;32.858;-116.858;2023-04-28T13:35:05;2.60;;;1.92;;
53899;SDS011;40509;32.858;-116.858;2023-04-28T13:37:33;2.92;;;2.38;;
53899;SDS011;40509;32.858;-116.858;2023-04-28T13:40:03;3.65;;;2.55;;
53899;SDS011;40509;32.858;-116.858;2023-04-28T13:42:31;3.38;;;1.85;;
53899;SDS011;40509;32.858;-116.858;2023-04-28T13:44:58;6.70;;;2.15;;
53899;SDS011;40509;32.858;-116.858;2023-04-28T13:47:25;5.68;;;2.75;;
53899;SDS011;40509;32.858;-116.858;2023-04-28T13:49:54;3.65;;;2.95;;
53899;SDS011;40509;32.858;-116.858;2023-04-28T13:52:21;17.10;;;2.75;;
53899;SDS011;40509;32.858;-116.858;2023-04-28T13:54:48;4.70;;;2.45;;
53899;SDS011;40509;32.858;-116.858;2023-04-28T13:57:15;3.55;;;3.08;;
53899;SDS011;40509;32.858;-116.858;2023-04-28T13:59:44;7.15;;;2.90;;
53899;SDS011;40509;32.858;-116.858;2023-04-28T14:02:11;2.63;;;1.80;;
53899;SDS011;40509;32.858;-116.858;2023-04-28T14:04:39;3.17;;;2.08;;
53899;SDS011;40509;32.858;-116.858;2023-04-28T14:07:13;2.47;;;2.28;;
53899;SDS011;40509;32.858;-116.858;2023-04-28T14:09:40;3.92;;;2.58;;
53899;SDS011;40509;32.858;-116.858;2023-04-28T14:12:08;3.10;;;2.80;;
53899;SDS011;40509;32.858;-116.858;2023-04-28T14:14:36;2.63;;;2.10;;
53899;SDS011;40509;32.858;-116.858;2023-04-28T14:17:03;2.85;;;2.47;;
53899;SDS011;40509;32.858;-116.858;2023-04-28T14:19:32;2.00;;;1.65;;
53899;SDS011;40509;32.858;-116.858;2023-04-28T14:21:59;7.13;;;2.40;;
53899;SDS011;40509;32.858;-116.858;2023-04-28T14:24:27;6.05;;;2.00;;
53899;SDS011;40509;32.858;-116.858;2023-04-28T14:26:54;4.47;;;2.88;;
53899;SDS011;40509;32.858;-116.858;2023-04-28T14:29:21;2.72;;;2.10;;
53899;SDS011;40509;32.858;-116.858;2023-04-28T14:31:48;6.30;;;1.75;;
53899;SDS011;40509;32.858;-116.858;2023-04-28T14:34:16;3.35;;;2.83;;
53899;SDS011;40509;32.858;-116.858;2023-04-28T14:36:43;2.38;;;2.00;;
53899;SDS011;40509;32.858;-116.858;2023-04-28T14:39:12;4.45;;;2.38;;
53899;SDS011;40509;32.858;-116.858;2023-04-28T14:41:39;2.55;;;2.28;;
53899;SDS011;40509;32.858;-116.858;2023-04-28T14:44:06;2.90;;;2.70;;
53899;SDS011;40509;32.858;-116.858;2023-04-28T14:46:33;4.85;;;2.03;;
53899;SDS011;40509;32.858;-116.858;2023-04-28T14:49:01;3.05;;;2.30;;